createdAt,value
2023-05-05T00:00:00.277Z,98799.17
2023-05-05T00:02:27.054Z,98801.46
2023-05-05T00:04:53.872Z,98804.45
2023-05-05T00:07:20.633Z,98804.08
2023-05-05T00:09:47.503Z,98802.48
2023-05-05T00:12:14.186Z,98804.77
2023-05-05T00:14:41.964Z,98802.47
2023-05-05T00:17:08.696Z,98800.54
2023-05-05T00:19:35.515Z,98800.41
2023-05-05T00:22:02.592Z,98800.35
2023-05-05T00:24:29.413Z,98800.46
2023-05-05T00:26:56.180Z,98801.05
2023-05-05T00:29:22.939Z,98798.52
2023-05-05T00:31:52.760Z,98797.41
2023-05-05T00:34:19.501Z,98796.63
2023-05-05T00:36:46.605Z,98797.91
2023-05-05T00:39:13.432Z,98799.02
2023-05-05T00:41:41.191Z,98796.86
2023-05-05T00:44:08.326Z,98795.40
2023-05-05T00:46:35.896Z,98792.55
2023-05-05T00:49:02.848Z,98787.92
2023-05-05T00:51:30.131Z,98787.61
2023-05-05T00:53:57.174Z,98785.63
2023-05-05T00:56:24.027Z,98784.48
2023-05-05T00:58:50.918Z,98779.74
2023-05-05T01:01:18.161Z,98776.54
2023-05-05T01:03:45.204Z,98773.17
2023-05-05T01:06:28.484Z,98769.27
2023-05-05T01:09:09.202Z,98771.95
2023-05-05T01:11:46.653Z,98774.11
2023-05-05T01:14:19.456Z,98775.73
2023-05-05T01:17:13.058Z,98770.20
2023-05-05T01:20:05.339Z,98776.52
2023-05-05T01:22:39.613Z,98775.35
2023-05-05T01:25:45.243Z,98777.46
2023-05-05T01:28:36.765Z,98781.36
2023-05-05T01:31:10.065Z,98782.27
2023-05-05T01:33:44.571Z,98778.30
2023-05-05T01:36:16.455Z,98778.42
2023-05-05T01:38:45.986Z,98773.55
2023-05-05T01:41:25.625Z,98769.59
2023-05-05T01:43:55.258Z,98769.60
2023-05-05T01:46:24.647Z,98775.84
2023-05-05T01:48:53.873Z,98774.15
2023-05-05T01:51:23.391Z,98772.48
2023-05-05T01:53:57.254Z,98768.79
2023-05-05T01:56:26.200Z,98769.71
2023-05-05T01:58:54.594Z,98767.36
2023-05-05T02:01:24.303Z,98769.63
2023-05-05T02:03:52.604Z,98770.38
2023-05-05T02:06:21.890Z,98768.20
2023-05-05T02:08:50.827Z,98768.29
2023-05-05T02:11:18.839Z,98767.02
2023-05-05T02:13:47.430Z,98767.46
2023-05-05T02:16:15.411Z,98765.15
2023-05-05T02:18:43.305Z,98769.77
2023-05-05T02:21:10.153Z,98768.75
2023-05-05T02:23:37.002Z,98764.15
2023-05-05T02:26:08.030Z,98762.52
2023-05-05T02:29:07.759Z,98765.52
2023-05-05T02:31:43.738Z,98768.51
2023-05-05T02:34:11.478Z,98768.23
2023-05-05T02:36:40.165Z,98759.36
2023-05-05T02:39:25.973Z,98759.54
2023-05-05T02:41:55.260Z,98761.26
2023-05-05T02:44:26.276Z,98762.85
2023-05-05T02:46:54.556Z,98762.05
2023-05-05T02:49:21.885Z,98765.83
2023-05-05T02:51:49.715Z,98766.37
2023-05-05T02:54:17.178Z,98764.16
2023-05-05T02:56:51.153Z,98763.20
2023-05-05T02:59:27.000Z,98765.63
2023-05-05T03:02:21.276Z,98766.69
2023-05-05T03:05:00.911Z,98764.88
2023-05-05T03:07:55.094Z,98760.95
2023-05-05T03:10:29.077Z,98760.98
2023-05-05T03:13:00.143Z,98755.70
2023-05-05T03:15:33.635Z,98755.70
2023-05-05T03:18:02.392Z,98758.39
2023-05-05T03:20:30.349Z,98761.77
2023-05-05T03:22:57.873Z,98764.48
2023-05-05T03:25:42.274Z,98771.50
2023-05-05T03:28:09.030Z,98767.87
2023-05-05T03:30:36.029Z,98765.45
2023-05-05T03:33:02.891Z,98769.65
2023-05-05T03:35:29.733Z,98768.90
2023-05-05T03:37:56.592Z,98769.88
2023-05-05T03:40:36.355Z,98772.89
2023-05-05T03:43:07.603Z,98778.28
2023-05-05T03:45:34.481Z,98783.14
2023-05-05T03:48:01.332Z,98784.24
2023-05-05T03:50:28.116Z,98785.63
2023-05-05T03:52:54.864Z,98785.55
2023-05-05T03:55:21.593Z,98780.71
2023-05-05T03:57:48.554Z,98775.33
2023-05-05T04:00:15.792Z,98775.96
2023-05-05T04:02:42.748Z,98782.48
2023-05-05T04:05:09.891Z,98782.73
2023-05-05T04:07:36.656Z,98778.33
2023-05-05T04:10:03.774Z,98777.20
2023-05-05T04:12:30.820Z,98777.71
2023-05-05T04:14:57.608Z,98776.80
2023-05-05T04:17:24.364Z,98779.29
2023-05-05T04:19:51.128Z,98774.25
2023-05-05T04:22:17.880Z,98781.17
2023-05-05T04:24:44.601Z,98779.65
2023-05-05T04:27:11.542Z,98781.94
2023-05-05T04:29:38.340Z,98782.89
2023-05-05T04:32:05.486Z,98784.61
2023-05-05T04:34:32.225Z,98778.52
2023-05-05T04:36:59.342Z,98779.11
2023-05-05T04:39:26.138Z,98774.55
2023-05-05T04:41:52.853Z,98775.08
2023-05-05T04:44:19.557Z,98773.46
2023-05-05T04:46:46.607Z,98771.88
2023-05-05T04:49:13.444Z,98776.05
2023-05-05T04:51:43.273Z,98776.03
2023-05-05T04:54:10.050Z,98776.47
2023-05-05T04:56:37.073Z,98777.33
2023-05-05T04:59:03.821Z,98775.50
2023-05-05T05:01:30.671Z,98776.59
2023-05-05T05:03:57.604Z,98773.30
2023-05-05T05:06:24.676Z,98775.96
2023-05-05T05:08:51.412Z,98776.64
2023-05-05T05:11:18.264Z,98782.31
2023-05-05T05:13:45.011Z,98784.91
2023-05-05T05:16:11.934Z,98782.17
2023-05-05T05:18:38.876Z,98779.60
2023-05-05T05:21:05.701Z,98772.42
2023-05-05T05:23:32.529Z,98765.50
2023-05-05T05:25:59.500Z,98764.58
2023-05-05T05:28:26.561Z,98764.59
2023-05-05T05:30:53.741Z,98763.63
2023-05-05T05:33:20.611Z,98767.13
2023-05-05T05:35:47.574Z,98765.22
2023-05-05T05:38:14.372Z,98766.05
2023-05-05T05:40:41.129Z,98766.36
2023-05-05T05:43:07.954Z,98767.95
2023-05-05T05:45:34.806Z,98765.26
2023-05-05T05:48:01.603Z,98762.98
2023-05-05T05:50:28.624Z,98761.80
2023-05-05T05:52:55.981Z,98752.64
2023-05-05T05:55:22.837Z,98751.20
2023-05-05T05:57:49.548Z,98755.34
2023-05-05T06:00:16.642Z,98756.16
2023-05-05T06:02:43.441Z,98756.04
2023-05-05T06:05:10.375Z,98754.04
2023-05-05T06:07:37.179Z,98749.65
2023-05-05T06:10:18.474Z,98748.92
2023-05-05T06:12:51.395Z,98747.23
2023-05-05T06:15:18.510Z,98744.38
2023-05-05T06:17:45.308Z,98746.00
2023-05-05T06:20:12.894Z,98744.98
2023-05-05T06:22:39.757Z,98744.06
2023-05-05T06:25:07.089Z,98747.45
2023-05-05T06:27:34.763Z,98749.40
2023-05-05T06:30:01.510Z,98750.17
2023-05-05T06:32:28.303Z,98752.46
2023-05-05T06:34:55.200Z,98750.95
2023-05-05T06:37:22.009Z,98753.98
2023-05-05T06:39:48.732Z,98751.98
2023-05-05T06:42:15.479Z,98749.52
2023-05-05T06:44:42.294Z,98749.18
2023-05-05T06:47:09.037Z,98749.77
2023-05-05T06:49:35.851Z,98744.65
2023-05-05T06:52:02.640Z,98745.38
2023-05-05T06:54:29.390Z,98748.63
2023-05-05T06:56:58.095Z,98751.70
2023-05-05T06:59:26.494Z,98755.98
2023-05-05T07:01:53.332Z,98759.73
2023-05-05T07:04:20.189Z,98759.59
2023-05-05T07:06:47.033Z,98760.56
2023-05-05T07:09:15.704Z,98763.98
2023-05-05T07:11:43.888Z,98764.98
2023-05-05T07:14:10.585Z,98761.64
2023-05-05T07:16:37.559Z,98757.23
2023-05-05T07:19:04.766Z,98754.73
2023-05-05T07:21:31.608Z,98751.95
2023-05-05T07:23:58.310Z,98750.55
2023-05-05T07:26:25.675Z,98749.98
2023-05-05T07:28:52.462Z,98743.92
2023-05-05T07:31:19.372Z,98741.71
2023-05-05T07:33:46.155Z,98739.98
2023-05-05T07:36:13.465Z,98733.02
2023-05-05T07:38:40.377Z,98731.80
2023-05-05T07:41:07.131Z,98730.15
2023-05-05T07:43:33.965Z,98733.65
2023-05-05T07:46:00.824Z,98731.44
2023-05-05T07:48:27.625Z,98728.44
2023-05-05T07:50:54.480Z,98728.16
2023-05-05T07:53:21.315Z,98727.72
2023-05-05T07:55:48.075Z,98724.17
2023-05-05T07:58:14.969Z,98724.06
2023-05-05T08:00:41.887Z,98723.68
2023-05-05T08:03:11.696Z,98723.61
2023-05-05T08:05:39.278Z,98722.24
2023-05-05T08:08:06.574Z,98721.12
2023-05-05T08:10:33.340Z,98718.56
2023-05-05T08:13:00.183Z,98718.11
2023-05-05T08:15:27.191Z,98715.04
2023-05-05T08:17:54.359Z,98710.15
2023-05-05T08:20:21.887Z,98712.70
2023-05-05T08:22:49.577Z,98710.90
2023-05-05T08:25:16.410Z,98708.30
2023-05-05T08:27:43.753Z,98708.87
2023-05-05T08:30:11.110Z,98708.88
2023-05-05T08:32:38.367Z,98705.53
2023-05-05T08:35:06.320Z,98706.10
2023-05-05T08:37:33.483Z,98705.54
2023-05-05T08:40:00.509Z,98705.98
2023-05-05T08:42:38.159Z,98704.63
2023-05-05T08:45:08.540Z,98702.30
2023-05-05T08:47:36.737Z,98701.02
2023-05-05T08:50:04.441Z,98699.57
2023-05-05T08:52:38.765Z,98694.25
2023-05-05T08:55:23.120Z,98691.80
2023-05-05T08:57:55.936Z,98689.40
2023-05-05T09:00:24.201Z,98689.02
2023-05-05T09:02:51.404Z,98687.48
2023-05-05T09:05:18.510Z,98686.59
2023-05-05T09:07:46.175Z,98686.37
2023-05-05T09:10:13.153Z,98687.14
2023-05-05T09:12:40.419Z,98688.58
2023-05-05T09:15:08.969Z,98688.45
2023-05-05T09:17:36.347Z,98691.14
2023-05-05T09:20:11.212Z,98685.88
2023-05-05T09:22:43.783Z,98683.96
2023-05-05T09:25:15.726Z,98689.59
2023-05-05T09:27:49.369Z,98684.73
2023-05-05T09:30:19.152Z,98685.95
2023-05-05T09:32:48.994Z,98681.39
2023-05-05T09:35:17.427Z,98675.89
2023-05-05T09:37:44.771Z,98676.04
2023-05-05T09:40:13.982Z,98674.59
2023-05-05T09:42:41.753Z,98670.73
2023-05-05T09:45:18.087Z,98670.52
2023-05-05T09:47:46.509Z,98671.13
2023-05-05T09:50:14.569Z,98668.55
2023-05-05T09:52:42.149Z,98660.98
2023-05-05T09:55:18.401Z,98659.45
2023-05-05T09:57:45.484Z,98661.60
2023-05-05T10:00:13.298Z,98655.94
2023-05-05T10:02:40.495Z,98656.23
2023-05-05T10:05:14.754Z,98653.65
2023-05-05T10:07:44.010Z,98656.67
2023-05-05T10:10:15.936Z,98651.68
2023-05-05T10:12:43.420Z,98654.06
2023-05-05T10:15:11.530Z,98649.41
2023-05-05T10:20:21.072Z,98645.98
2023-05-05T10:22:52.367Z,98655.33
2023-05-05T10:25:42.722Z,98649.98
2023-05-05T10:28:16.714Z,98648.84
2023-05-05T10:30:46.138Z,98644.80
2023-05-05T10:33:31.582Z,98641.98
2023-05-05T10:36:02.236Z,98640.96
2023-05-05T10:38:33.068Z,98642.39
2023-05-05T10:41:01.131Z,98638.79
2023-05-05T10:43:29.687Z,98642.23
2023-05-05T10:45:57.305Z,98638.97
2023-05-05T10:48:51.612Z,98637.40
2023-05-05T10:51:38.846Z,98630.74
2023-05-05T10:54:17.075Z,98630.46
2023-05-05T10:56:44.101Z,98633.06
2023-05-05T10:59:36.102Z,98629.33
2023-05-05T11:02:21.637Z,98632.73
2023-05-05T11:05:08.251Z,98625.36
2023-05-05T11:07:35.948Z,98616.77
2023-05-05T11:10:13.660Z,98610.16
2023-05-05T11:12:52.701Z,98617.77
2023-05-05T11:15:29.258Z,98613.85
2023-05-05T11:17:57.876Z,98613.27
2023-05-05T11:20:36.783Z,98607.19
2023-05-05T11:23:03.655Z,98606.10
2023-05-05T11:25:37.185Z,98600.70
2023-05-05T11:28:10.819Z,98603.30
2023-05-05T11:30:56.391Z,98598.73
2023-05-05T11:33:31.241Z,98600.01
2023-05-05T11:36:06.386Z,98595.84
2023-05-05T11:39:09.465Z,98602.60
2023-05-05T11:41:48.379Z,98600.23
2023-05-05T11:44:20.141Z,98601.45
2023-05-05T11:46:53.160Z,98600.60
2023-05-05T11:49:37.192Z,98596.39
2023-05-05T11:52:04.924Z,98598.93
2023-05-05T11:54:32.429Z,98595.55
2023-05-05T11:57:01.213Z,98595.59
2023-05-05T11:59:27.913Z,98594.67
2023-05-05T12:01:54.809Z,98591.20
2023-05-05T12:04:21.969Z,98587.02
2023-05-05T12:06:49.054Z,98585.33
2023-05-05T12:09:20.089Z,98577.41
2023-05-05T12:11:51.228Z,98579.46
2023-05-05T12:14:19.001Z,98578.77
2023-05-05T12:16:58.964Z,98576.20
2023-05-05T12:19:26.272Z,98578.03
2023-05-05T12:21:53.023Z,98577.95
2023-05-05T12:24:19.871Z,98572.95
2023-05-05T12:26:46.696Z,98571.69
2023-05-05T12:29:13.488Z,98566.45
2023-05-05T12:31:41.825Z,98567.91
2023-05-05T12:34:10.316Z,98567.73
2023-05-05T12:36:38.167Z,98569.56
2023-05-05T12:39:05.513Z,98566.58
2023-05-05T12:41:33.611Z,98566.02
2023-05-05T12:44:01.964Z,98564.17
2023-05-05T12:46:29.804Z,98562.80
2023-05-05T12:49:00.870Z,98561.97
2023-05-05T12:51:27.837Z,98559.79
2023-05-05T12:54:11.552Z,98556.70
2023-05-05T12:56:48.297Z,98558.77
2023-05-05T12:59:23.847Z,98555.35
2023-05-05T13:01:55.496Z,98557.29
2023-05-05T13:04:23.950Z,98553.23
2023-05-05T13:07:08.647Z,98549.24
2023-05-05T13:09:35.195Z,98543.52
2023-05-05T13:12:02.422Z,98541.19
2023-05-05T13:14:28.920Z,98536.05
2023-05-05T13:16:55.345Z,98532.94
2023-05-05T13:19:21.896Z,98529.01
2023-05-05T13:21:48.719Z,98526.61
2023-05-05T13:24:26.166Z,98527.29
2023-05-05T13:27:02.042Z,98523.31
2023-05-05T13:29:31.437Z,98515.95
2023-05-05T13:31:58.379Z,98511.48
2023-05-05T13:34:24.917Z,98516.52
2023-05-05T13:36:51.364Z,98513.23
2023-05-05T13:39:17.876Z,98505.00
2023-05-05T13:41:44.336Z,98500.79
2023-05-05T13:44:11.053Z,98504.57
2023-05-05T13:46:37.765Z,98506.52
2023-05-05T13:49:04.362Z,98502.05
2023-05-05T13:51:30.928Z,98501.66
2023-05-05T13:53:57.726Z,98505.45
2023-05-05T13:56:24.289Z,98504.69
2023-05-05T13:58:50.762Z,98498.38
2023-05-05T14:01:17.287Z,98496.09
2023-05-05T14:03:43.885Z,98496.13
2023-05-05T14:06:10.568Z,98490.35
2023-05-05T14:08:37.442Z,98490.94
2023-05-05T14:11:04.044Z,98485.89
2023-05-05T14:13:30.717Z,98486.41
2023-05-05T14:15:57.347Z,98491.95
2023-05-05T14:18:25.306Z,98490.29
2023-05-05T14:20:51.815Z,98490.70
2023-05-05T14:23:18.327Z,98490.88
2023-05-05T14:25:44.878Z,98491.02
2023-05-05T14:28:11.367Z,98490.23
2023-05-05T14:30:37.843Z,98491.13
2023-05-05T14:33:04.331Z,98490.46
2023-05-05T14:35:31.188Z,98489.33
2023-05-05T14:37:57.800Z,98488.21
2023-05-05T14:40:24.373Z,98495.52
2023-05-05T14:42:50.909Z,98489.79
2023-05-05T14:45:17.522Z,98488.38
2023-05-05T14:47:44.025Z,98484.56
2023-05-05T14:50:10.930Z,98484.77
2023-05-05T14:52:37.957Z,98482.08
2023-05-05T14:55:05.233Z,98488.73
2023-05-05T14:57:31.866Z,98483.89
2023-05-05T14:59:58.708Z,98481.80
2023-05-05T15:02:25.506Z,98480.67
2023-05-05T15:04:52.083Z,98486.02
2023-05-05T15:07:18.871Z,98485.02
2023-05-05T15:09:45.615Z,98484.04
2023-05-05T15:12:12.133Z,98481.08
2023-05-05T15:14:38.597Z,98482.21
2023-05-05T15:17:05.084Z,98480.24
2023-05-05T15:19:31.810Z,98483.34
2023-05-05T15:21:58.449Z,98482.80
2023-05-05T15:24:24.995Z,98485.80
2023-05-05T15:26:51.441Z,98483.82
2023-05-05T15:29:17.975Z,98482.94
2023-05-05T15:31:44.512Z,98483.90
2023-05-05T15:34:11.071Z,98483.58
2023-05-05T15:36:37.506Z,98478.75
2023-05-05T15:39:04.044Z,98476.08
2023-05-05T15:41:30.514Z,98476.91
2023-05-05T15:43:57.027Z,98473.24
2023-05-05T15:46:23.687Z,98473.79
2023-05-05T15:48:50.249Z,98466.77
2023-05-05T15:51:16.950Z,98462.96
2023-05-05T15:53:43.481Z,98461.08
2023-05-05T15:56:10.050Z,98464.67
2023-05-05T15:58:36.723Z,98462.98
2023-05-05T16:01:03.321Z,98464.64
2023-05-05T16:03:30.052Z,98464.20
2023-05-05T16:05:56.636Z,98467.05
2023-05-05T16:08:23.107Z,98461.52
2023-05-05T16:10:49.651Z,98462.77
2023-05-05T16:13:16.229Z,98462.64
2023-05-05T16:15:48.474Z,98461.98
2023-05-05T16:18:15.113Z,98459.55
2023-05-05T16:20:41.503Z,98461.79
2023-05-05T16:23:07.902Z,98462.33
2023-05-05T16:25:34.335Z,98467.05
2023-05-05T16:28:00.732Z,98462.30
2023-05-05T16:30:27.543Z,98463.08
2023-05-05T16:32:54.015Z,98465.25
2023-05-05T16:35:21.234Z,98465.17
2023-05-05T16:37:47.852Z,98464.52
2023-05-05T16:40:14.564Z,98466.44
2023-05-05T16:42:43.707Z,98472.03
2023-05-05T16:45:11.817Z,98477.33
2023-05-05T16:47:38.436Z,98472.81
2023-05-05T16:50:05.886Z,98476.57
2023-05-05T16:52:32.432Z,98474.21
2023-05-05T16:54:58.877Z,98475.77
2023-05-05T16:57:25.416Z,98476.69
2023-05-05T16:59:55.227Z,98481.06
2023-05-05T17:02:22.523Z,98483.87
2023-05-05T17:04:49.558Z,98487.55
2023-05-05T17:07:16.136Z,98488.06
2023-05-05T17:09:42.723Z,98490.52
2023-05-05T17:12:09.186Z,98489.45
2023-05-05T17:14:35.699Z,98491.84
2023-05-05T17:17:02.180Z,98499.42
2023-05-05T17:19:28.666Z,98501.86
2023-05-05T17:21:55.086Z,98502.67
2023-05-05T17:24:21.614Z,98502.27
2023-05-05T17:26:48.665Z,98505.23
2023-05-05T17:29:15.124Z,98503.22
2023-05-05T17:31:41.769Z,98503.70
2023-05-05T17:34:08.393Z,98505.59
2023-05-05T17:36:34.775Z,98509.99
2023-05-05T17:39:01.306Z,98514.64
2023-05-05T17:41:27.749Z,98515.84
2023-05-05T17:43:54.192Z,98513.06
2023-05-05T17:46:20.978Z,98516.59
2023-05-05T17:48:47.744Z,98512.00
2023-05-05T17:51:14.372Z,98511.61
2023-05-05T17:53:40.899Z,98511.64
2023-05-05T17:56:09.048Z,98515.27
2023-05-05T17:58:35.823Z,98517.32
2023-05-05T18:01:02.325Z,98521.69
2023-05-05T18:03:28.995Z,98523.30
2023-05-05T18:05:55.570Z,98528.28
2023-05-05T18:08:22.138Z,98529.63
2023-05-05T18:10:48.744Z,98534.89
2023-05-05T18:13:15.293Z,98534.14
2023-05-05T18:15:41.901Z,98536.83
2023-05-05T18:18:08.491Z,98540.65
2023-05-05T18:20:35.013Z,98539.81
2023-05-05T18:23:01.488Z,98543.66
2023-05-05T18:25:28.023Z,98544.47
2023-05-05T18:27:54.938Z,98546.48
2023-05-05T18:30:21.496Z,98546.80
2023-05-05T18:32:47.985Z,98552.86
2023-05-05T18:35:14.582Z,98552.39
2023-05-05T18:37:41.002Z,98547.70
2023-05-05T18:40:08.371Z,98549.75
2023-05-05T18:42:34.913Z,98551.64
2023-05-05T18:45:01.392Z,98550.45
2023-05-05T18:47:27.938Z,98551.53
2023-05-05T18:49:54.342Z,98554.75
2023-05-05T18:52:20.792Z,98562.42
2023-05-05T18:54:47.469Z,98564.76
2023-05-05T18:57:13.872Z,98566.73
2023-05-05T18:59:40.642Z,98567.27
2023-05-05T19:02:07.293Z,98568.14
2023-05-05T19:04:33.778Z,98571.54
2023-05-05T19:07:00.430Z,98568.52
2023-05-05T19:09:27.567Z,98569.46
2023-05-05T19:11:53.973Z,98571.02
2023-05-05T19:14:20.437Z,98571.39
2023-05-05T19:16:47.009Z,98572.67
2023-05-05T19:19:13.946Z,98575.51
2023-05-05T19:21:40.691Z,98577.52
2023-05-05T19:24:09.063Z,98580.08
2023-05-05T19:26:35.542Z,98580.42
2023-05-05T19:29:02.045Z,98579.64
2023-05-05T19:31:28.594Z,98580.08
2023-05-05T19:34:00.761Z,98581.09
2023-05-05T19:36:27.451Z,98577.30
2023-05-05T19:38:55.187Z,98579.73
2023-05-05T19:41:21.597Z,98576.02
2023-05-05T19:43:48.080Z,98574.63
2023-05-05T19:46:14.665Z,98574.90
2023-05-05T19:48:41.328Z,98577.23
2023-05-05T19:51:07.921Z,98581.95
2023-05-05T19:53:34.460Z,98581.50
2023-05-05T19:56:01.214Z,98586.21
2023-05-05T19:58:27.680Z,98582.69
2023-05-05T20:00:54.120Z,98580.77
2023-05-05T20:03:20.797Z,98579.55
2023-05-05T20:05:47.457Z,98574.38
2023-05-05T20:08:13.893Z,98573.66
2023-05-05T20:10:40.498Z,98578.09
2023-05-05T20:13:07.075Z,98576.10
2023-05-05T20:15:33.783Z,98574.52
2023-05-05T20:18:00.685Z,98574.96
2023-05-05T20:20:27.198Z,98574.82
2023-05-05T20:22:53.792Z,98575.56
2023-05-05T20:25:20.293Z,98575.70
2023-05-05T20:27:46.732Z,98570.63
2023-05-05T20:30:13.490Z,98569.41
2023-05-05T20:32:40.693Z,98565.68
2023-05-05T20:35:08.366Z,98565.70
2023-05-05T20:37:34.869Z,98564.73
2023-05-05T20:40:01.434Z,98565.42
2023-05-05T20:42:28.091Z,98565.44
2023-05-05T20:44:54.646Z,98571.12
2023-05-05T20:47:21.137Z,98571.63
2023-05-05T20:49:47.588Z,98569.54
2023-05-05T20:52:14.410Z,98566.52
2023-05-05T20:54:40.972Z,98564.86
2023-05-05T20:57:07.870Z,98564.48
2023-05-05T20:59:34.577Z,98567.18
2023-05-05T21:02:01.056Z,98568.56
2023-05-05T21:04:27.806Z,98569.21
2023-05-05T21:06:54.502Z,98565.95
2023-05-05T21:09:21.162Z,98567.64
2023-05-05T21:11:47.824Z,98567.41
2023-05-05T21:14:14.349Z,98573.06
2023-05-05T21:16:41.046Z,98569.22
2023-05-05T21:19:07.665Z,98566.52
2023-05-05T21:21:34.097Z,98564.39
2023-05-05T21:24:01.087Z,98559.23
2023-05-05T21:26:27.705Z,98560.87
2023-05-05T21:28:54.344Z,98557.19
2023-05-05T21:31:22.372Z,98556.74
2023-05-05T21:33:49.502Z,98556.11
2023-05-05T21:36:16.164Z,98553.89
2023-05-05T21:38:42.777Z,98550.30
2023-05-05T21:41:09.333Z,98549.98
2023-05-05T21:43:35.770Z,98549.45
2023-05-05T21:46:04.190Z,98551.09
2023-05-05T21:48:31.324Z,98546.25
2023-05-05T21:50:58.046Z,98542.82
2023-05-05T21:53:24.726Z,98546.85
2023-05-05T21:55:51.445Z,98545.35
2023-05-05T21:58:18.021Z,98541.27
2023-05-05T22:00:44.535Z,98541.02
2023-05-05T22:03:11.046Z,98540.61
2023-05-05T22:05:37.648Z,98542.48
2023-05-05T22:08:04.610Z,98541.52
2023-05-05T22:10:31.173Z,98538.76
2023-05-05T22:12:57.769Z,98538.59
2023-05-05T22:15:27.705Z,98535.69
2023-05-05T22:17:56.844Z,98538.98
2023-05-05T22:20:23.496Z,98537.67
2023-05-05T22:22:50.255Z,98537.18
2023-05-05T22:25:16.988Z,98531.39
2023-05-05T22:27:43.544Z,98526.91
2023-05-05T22:30:10.584Z,98533.00
2023-05-05T22:32:37.425Z,98534.75
2023-05-05T22:35:05.113Z,98532.15
2023-05-05T22:37:31.561Z,98528.75
2023-05-05T22:39:58.351Z,98532.06
2023-05-05T22:42:25.031Z,98532.84
2023-05-05T22:44:51.630Z,98535.95
2023-05-05T22:47:18.188Z,98531.31
2023-05-05T22:49:45.423Z,98537.34
2023-05-05T22:52:11.891Z,98538.73
2023-05-05T22:54:38.409Z,98542.44
2023-05-05T22:57:04.901Z,98544.16
2023-05-05T22:59:31.394Z,98542.98
2023-05-05T23:01:57.871Z,98540.48
2023-05-05T23:04:24.503Z,98535.42
2023-05-05T23:06:51.012Z,98530.62
2023-05-05T23:09:17.558Z,98531.59
2023-05-05T23:11:44.074Z,98532.29
2023-05-05T23:14:10.521Z,98528.48
2023-05-05T23:16:37.021Z,98524.29
2023-05-05T23:19:03.578Z,98528.31
2023-05-05T23:21:32.048Z,98525.05
2023-05-05T23:24:00.776Z,98528.16
2023-05-05T23:26:27.242Z,98529.19
2023-05-05T23:28:53.727Z,98532.86
2023-05-05T23:31:20.384Z,98532.14
2023-05-05T23:33:47.033Z,98528.73
2023-05-05T23:36:13.523Z,98524.86
2023-05-05T23:38:39.949Z,98522.05
2023-05-05T23:41:06.472Z,98521.19
2023-05-05T23:43:33.174Z,98522.42
2023-05-05T23:45:59.730Z,98519.30
2023-05-05T23:48:26.277Z,98517.42
2023-05-05T23:50:53.380Z,98515.41
2023-05-05T23:53:20.137Z,98513.33
2023-05-05T23:55:46.569Z,98517.77
2023-05-05T23:58:13.357Z,98516.61
